Time;durP1;ratioP1;P1;durP2;ratioP2;P2;SDS_P1;SDS_P2;PMS_P1;PMS_P2;Temp;Humidity;BMP_temperature;BMP_pressure;BME280_temperature;BME280_humidity;BME280_pressure;Samples;Min_cycle;Max_cycle;Signal;HPM_P1;HPM_P2
2020/12/29 04:36:32;;;;;;;12.95;8.58;;;;;;;1.20;98.26;98596.23;1816097;79;22581;-62
2020/12/29 04:39:00;;;;;;;9.43;7.62;;;;;;;1.18;98.20;98613.80;1789112;80;21075;-62
2020/12/29 04:41:28;;;;;;;9.58;7.10;;;;;;;1.21;98.14;98606.87;1785011;80;21199;-62
2020/12/29 04:43:55;;;;;;;7.37;5.97;;;;;;;1.26;98.05;98601.25;1728442;81;21119;-62
2020/12/29 04:46:23;;;;;;;6.62;4.65;;;;;;;1.32;98.03;98606.70;1728672;81;21153;-62
2020/12/29 04:48:51;;;;;;;6.87;5.78;;;;;;;1.43;97.95;98607.77;1757929;81;21083;-62
2020/12/29 04:51:18;;;;;;;8.00;6.30;;;;;;;1.50;97.67;98595.27;1757940;81;21063;-63
2020/12/29 04:53:58;;;;;;;7.55;5.67;;;;;;;1.56;97.72;98597.29;1757893;81;21213;-62
2020/12/29 04:56:32;;;;;;;7.47;6.05;;;;;;;1.66;97.53;98588.97;1757825;81;21011;-62
2020/12/29 04:59:03;;;;;;;6.53;5.33;;;;;;;1.74;97.13;98594.80;1757938;81;20933;-62
2020/12/29 05:04:13;;;;;;;5.62;4.22;;;;;;;1.88;96.65;98588.09;1873568;76;22648;-62
2020/12/29 05:06:43;;;;;;;5.08;4.17;;;;;;;1.87;96.43;98582.13;1841610;77;20919;-62
2020/12/29 05:09:11;;;;;;;5.87;4.87;;;;;;;1.88;96.09;98571.43;1841606;78;21357;-62
2020/12/29 05:11:38;;;;;;;3.90;3.50;;;;;;;1.87;95.96;98565.45;1841510;77;21489;-62
2020/12/29 05:14:06;;;;;;;5.60;3.70;;;;;;;1.88;95.87;98560.73;1841583;78;21002;-63
2020/12/29 05:16:39;;;;;;;5.25;3.77;;;;;;;1.88;95.69;98544.51;1841602;77;21592;-62
2020/12/29 05:19:16;;;;;;;4.87;3.55;;;;;;;1.86;95.66;98544.54;1841766;78;22148;-62
2020/12/29 05:21:44;;;;;;;4.83;4.15;;;;;;;1.86;95.45;98543.69;1841612;78;21460;-63
2020/12/29 05:24:22;;;;;;;4.80;3.60;;;;;;;1.85;95.52;98535.16;1841499;77;20923;-62
2020/12/29 05:26:59;;;;;;;4.40;3.70;;;;;;;1.84;95.52;98524.50;1841586;77;21037;-61
2020/12/29 05:29:28;;;;;;;7.10;5.72;;;;;;;1.83;95.34;98520.24;1786584;78;21169;-62
2020/12/29 05:31:55;;;;;;;6.35;4.50;;;;;;;1.81;95.32;98521.15;1841604;78;21105;-63
2020/12/29 05:34:28;;;;;;;5.90;4.65;;;;;;;1.79;95.41;98521.65;1841553;78;21246;-62
2020/12/29 05:36:58;;;;;;;4.78;4.20;;;;;;;1.76;95.43;98518.70;1841509;78;21129;-62
2020/12/29 05:39:29;;;;;;;4.95;3.67;;;;;;;1.77;95.50;98515.70;1841527;77;21077;-63
2020/12/29 05:41:57;;;;;;;5.22;4.72;;;;;;;1.78;95.47;98514.39;1830769;78;21494;-62
2020/12/29 05:44:28;;;;;;;4.15;3.12;;;;;;;1.79;95.40;98506.27;1808512;79;21109;-62
2020/12/29 05:47:00;;;;;;;4.45;3.60;;;;;;;1.80;95.57;98492.10;1808523;79;21443;-63
2020/12/29 05:49:28;;;;;;;4.58;4.03;;;;;;;1.81;95.63;98506.61;1808591;79;21112;-62
2020/12/29 05:51:57;;;;;;;3.47;3.10;;;;;;;1.85;95.64;98517.21;1808537;78;21532;-62
2020/12/29 05:54:27;;;;;;;4.97;3.83;;;;;;;1.87;95.69;98515.46;1808430;78;21168;-62
2020/12/29 05:56:54;;;;;;;5.00;4.00;;;;;;;1.92;95.71;98526.47;1808630;79;21167;-62
2020/12/29 05:59:23;;;;;;;5.50;4.22;;;;;;;1.96;95.77;98512.70;1808466;79;21354;-62
2020/12/29 06:01:53;;;;;;;4.92;3.55;;;;;;;2.01;95.74;98508.30;1754945;79;21069;-62
2020/12/29 06:04:20;;;;;;;5.72;4.90;;;;;;;2.07;95.63;98503.04;1800106;78;21219;-62
2020/12/29 06:06:50;;;;;;;6.33;4.35;;;;;;;2.09;95.54;98514.55;1800501;78;21191;-62
2020/12/29 06:09:20;;;;;;;6.83;4.25;;;;;;;2.11;95.62;98521.77;1800508;79;21032;-62
2020/12/29 06:11:53;;;;;;;5.40;3.95;;;;;;;2.15;95.55;98514.41;1800525;79;21199;-63
2020/12/29 06:14:24;;;;;;;4.25;3.15;;;;;;;2.17;95.58;98517.80;1800246;79;21481;-62
2020/12/29 06:16:54;;;;;;;3.52;2.87;;;;;;;2.21;95.55;98515.53;1799976;79;21025;-62
2020/12/29 06:19:27;;;;;;;5.97;3.85;;;;;;;2.24;95.46;98524.45;1799937;79;21163;-62
2020/12/29 06:22:08;;;;;;;4.72;3.72;;;;;;;2.26;95.42;98510.30;1799962;79;21120;-62
2020/12/29 06:24:47;;;;;;;4.55;3.20;;;;;;;2.28;95.38;98510.68;1799970;78;21552;-62
2020/12/29 06:27:15;;;;;;;5.80;3.77;;;;;;;2.31;95.37;98517.02;1799904;79;21132;-62
2020/12/29 06:29:44;;;;;;;5.05;3.62;;;;;;;2.36;95.37;98509.23;1799905;78;21195;-62
2020/12/29 06:32:19;;;;;;;6.42;3.77;;;;;;;2.38;95.28;98520.30;1799916;79;21056;-63
2020/12/29 06:34:48;;;;;;;5.50;3.67;;;;;;;2.41;95.01;98522.77;1784833;79;21524;-62
2020/12/29 06:37:32;;;;;;;3.77;3.22;;;;;;;2.42;95.00;98520.16;1799897;78;22222;-64
2020/12/29 06:40:04;;;;;;;5.05;3.15;;;;;;;2.45;95.01;98496.16;1799721;78;21108;-62
2020/12/29 06:42:31;;;;;;;4.28;3.47;;;;;;;2.46;94.99;98509.39;1799855;78;21065;-63
2020/12/29 06:44:59;;;;;;;4.60;3.20;;;;;;;2.51;95.04;98515.70;1799797;78;21057;-62
2020/12/29 06:47:27;;;;;;;9.45;4.95;;;;;;;2.55;94.83;98515.59;1799918;79;21129;-64
2020/12/29 06:49:55;;;;;;;11.03;6.10;;;;;;;2.57;94.79;98516.41;1799841;79;21581;-62
2020/12/29 06:52:29;;;;;;;6.20;3.67;;;;;;;2.60;94.72;98518.06;1784470;79;21069;-64
2020/12/29 06:55:01;;;;;;;4.60;3.05;;;;;;;2.61;94.72;98511.58;1799878;79;21452;-63
2020/12/29 06:57:41;;;;;;;5.03;3.40;;;;;;;2.65;94.65;98502.92;1799771;78;21064;-64
2020/12/29 07:00:17;;;;;;;5.17;4.50;;;;;;;2.68;94.60;98516.13;1799933;79;21073;-65
2020/12/29 07:02:50;;;;;;;5.30;3.92;;;;;;;2.72;94.56;98506.19;1800966;77;22179;-63
2020/12/29 07:05:28;;;;;;;4.97;3.87;;;;;;;2.76;94.55;98503.52;1807782;78;21073;-63
2020/12/29 07:08:04;;;;;;;6.58;4.72;;;;;;;2.80;94.31;98513.71;1806599;78;21148;-64
2020/12/29 07:10:47;;;;;;;6.87;5.30;;;;;;;2.84;94.42;98507.59;1807580;78;21145;-63
2020/12/29 07:13:21;;;;;;;8.45;6.92;;;;;;;2.88;94.32;98509.20;1807589;78;21557;-63
2020/12/29 07:15:57;;;;;;;5.60;4.58;;;;;;;2.92;94.20;98510.81;1712402;79;21384;-66
2020/12/29 07:18:28;;;;;;;4.95;4.05;;;;;;;2.94;94.08;98491.91;1778568;79;21761;-64
2020/12/29 07:20:57;;;;;;;5.90;4.95;;;;;;;2.96;93.85;98504.28;1807491;78;21137;-64
2020/12/29 07:23:27;;;;;;;5.72;4.30;;;;;;;2.98;93.94;98496.09;1807244;78;21620;-64
2020/12/29 07:25:59;;;;;;;6.30;4.85;;;;;;;3.03;93.94;98486.52;1806833;78;21130;-63
2020/12/29 07:28:29;;;;;;;7.10;5.08;;;;;;;3.07;93.82;98491.14;1806644;78;21216;-64
2020/12/29 07:30:57;;;;;;;6.62;4.83;;;;;;;3.09;93.64;98490.66;1806671;79;21133;-64
2020/12/29 07:33:26;;;;;;;6.58;4.47;;;;;;;3.09;93.70;98481.66;1806937;79;21612;-63
2020/12/29 07:35:54;;;;;;;6.47;4.72;;;;;;;3.09;93.65;98473.52;1807588;79;21155;-62
2020/12/29 07:38:25;;;;;;;5.30;4.12;;;;;;;3.10;93.66;98476.48;1807550;78;21199;-63
2020/12/29 07:40:53;;;;;;;6.20;4.33;;;;;;;3.10;93.69;98478.21;1807609;78;21136;-64
2020/12/29 07:43:21;;;;;;;5.20;4.35;;;;;;;3.13;93.75;98478.14;1807418;78;21131;-63
2020/12/29 07:45:48;;;;;;;5.87;4.28;;;;;;;3.16;93.72;98465.21;1807752;78;21477;-63
2020/12/29 07:48:18;;;;;;;6.17;4.47;;;;;;;3.17;93.59;98473.77;1779327;79;21141;-63
2020/12/29 07:50:46;;;;;;;6.08;5.25;;;;;;;3.16;93.70;98481.06;1807733;78;21117;-63
2020/12/29 07:53:14;;;;;;;6.85;5.03;;;;;;;3.19;93.72;98482.27;1807702;78;22134;-64
2020/12/29 07:55:42;;;;;;;5.83;4.45;;;;;;;3.25;93.94;98478.22;1807633;78;21065;-63
2020/12/29 07:58:10;;;;;;;3.80;3.40;;;;;;;3.31;93.69;98480.63;1807825;78;21505;-62
2020/12/29 08:00:39;;;;;;;4.00;3.30;;;;;;;3.31;93.39;98490.47;1807720;78;21156;-65
2020/12/29 08:03:09;;;;;;;5.20;4.47;;;;;;;3.34;93.51;98490.84;1807512;78;21176;-63
2020/12/29 08:05:39;;;;;;;4.77;4.07;;;;;;;3.37;93.42;98486.45;1807941;78;21193;-63
2020/12/29 08:08:09;;;;;;;6.35;4.95;;;;;;;3.41;93.41;98497.02;1807458;79;21125;-63
2020/12/29 08:10:40;;;;;;;5.53;4.62;;;;;;;3.45;93.34;98496.06;1807283;79;21197;-64
2020/12/29 08:13:13;;;;;;;4.75;3.70;;;;;;;3.48;93.23;98488.70;1807668;79;21149;-63
2020/12/29 08:15:42;;;;;;;5.20;3.95;;;;;;;3.53;93.11;98488.58;1807510;78;21065;-63
2020/12/29 08:18:16;;;;;;;6.47;4.37;;;;;;;3.55;92.96;98475.24;1807605;78;21352;-63
2020/12/29 08:20:56;;;;;;;5.58;4.58;;;;;;;3.53;92.82;98479.14;1807607;78;21164;-64
2020/12/29 08:23:27;;;;;;;4.92;4.20;;;;;;;3.53;92.89;98459.86;1807615;78;21161;-63
2020/12/29 08:25:59;;;;;;;5.17;3.90;;;;;;;3.56;92.88;98457.65;1807598;78;21128;-63
2020/12/29 08:31:10;;;;;;;6.40;5.25;;;;;;;3.61;92.88;98439.05;1888513;76;22713;-64
2020/12/29 08:33:38;;;;;;;6.22;4.12;;;;;;;3.60;93.01;98445.91;1775143;80;21476;-63
2020/12/29 08:36:06;;;;;;;6.80;5.35;;;;;;;3.66;92.94;98436.74;1849760;77;21367;-63
2020/12/29 08:39:04;;;;;;;6.25;5.20;;;;;;;3.73;93.04;98425.84;1793018;77;21542;-64
2020/12/29 08:41:39;;;;;;;6.80;5.08;;;;;;;3.82;92.88;98425.54;1845232;77;21143;-64
2020/12/29 08:44:08;;;;;;;5.65;4.67;;;;;;;3.88;92.67;98430.95;1775294;80;21073;-63
2020/12/29 08:46:36;;;;;;;5.67;4.87;;;;;;;3.92;92.64;98439.81;1774285;80;21660;-64
2020/12/29 08:49:05;;;;;;;5.17;3.95;;;;;;;3.97;92.60;98438.39;1775074;80;21203;-63
2020/12/29 08:51:43;;;;;;;5.15;4.05;;;;;;;4.02;92.56;98438.63;1816330;79;20933;-64
2020/12/29 08:54:16;;;;;;;5.97;4.03;;;;;;;4.06;92.39;98423.93;1816452;79;20926;-64
2020/12/29 08:56:46;;;;;;;4.87;4.22;;;;;;;4.09;92.23;98427.25;1816418;79;21107;-64
2020/12/29 08:59:21;;;;;;;5.80;4.28;;;;;;;4.11;92.12;98415.19;1816426;79;21123;-63
2020/12/29 09:01:59;;;;;;;4.58;3.70;;;;;;;4.14;92.25;98409.10;1775219;80;21202;-64
2020/12/29 09:04:33;;;;;;;4.58;3.47;;;;;;;4.17;92.08;98395.30;1816327;79;21051;-65
2020/12/29 09:07:08;;;;;;;6.00;3.58;;;;;;;4.20;91.88;98384.43;1775071;80;21119;-66
2020/12/29 09:10:01;;;;;;;3.90;3.00;;;;;;;4.19;91.64;98385.80;1774861;80;21160;-66
2020/12/29 09:12:32;;;;;;;5.08;3.47;;;;;;;4.17;91.74;98374.70;1774960;80;21045;-63
2020/12/29 09:15:05;;;;;;;4.15;3.30;;;;;;;4.15;91.86;98357.59;1775184;80;21382;-65
2020/12/29 09:17:42;;;;;;;5.20;3.37;;;;;;;4.16;91.88;98336.55;1816494;79;21182;-64
2020/12/29 09:20:17;;;;;;;4.80;3.87;;;;;;;4.18;92.00;98335.22;1775280;80;21493;-64
2020/12/29 09:23:03;;;;;;;5.80;4.05;;;;;;;4.22;92.17;98367.21;1775141;80;21173;-65
2020/12/29 09:25:43;;;;;;;7.40;4.65;;;;;;;4.28;92.36;98358.45;1773936;80;21168;-65
2020/12/29 09:28:21;;;;;;;6.90;5.10;;;;;;;4.36;92.15;98366.77;1816154;79;22254;-64
2020/12/29 09:31:04;;;;;;;5.87;4.78;;;;;;;4.38;92.13;98366.27;1774445;80;21506;-65
2020/12/29 09:33:34;;;;;;;6.83;5.28;;;;;;;4.41;92.26;98378.56;1810814;79;21151;-64
2020/12/29 09:36:02;;;;;;;7.17;5.22;;;;;;;4.46;92.36;98377.97;1815195;78;22183;-65
2020/12/29 09:38:31;;;;;;;5.83;4.40;;;;;;;4.49;92.16;98372.72;1815374;79;21166;-64
2020/12/29 09:41:02;;;;;;;5.60;5.00;;;;;;;4.49;92.16;98371.43;1815302;79;21182;-67
2020/12/29 09:43:30;;;;;;;7.00;5.35;;;;;;;4.50;92.35;98366.67;1815255;78;21628;-64
2020/12/29 09:46:00;;;;;;;7.85;6.33;;;;;;;4.51;92.51;98375.25;1815289;79;21490;-64
2020/12/29 09:48:28;;;;;;;5.80;4.75;;;;;;;4.54;92.47;98367.86;1815473;79;21481;-65
2020/12/29 09:50:56;;;;;;;8.55;5.53;;;;;;;4.56;92.59;98362.22;1814644;77;21148;-66
2020/12/29 09:53:24;;;;;;;6.35;5.30;;;;;;;4.58;92.52;98361.27;1848449;77;21186;-67
2020/12/29 09:55:54;;;;;;;9.65;6.58;;;;;;;4.60;92.55;98359.45;1849142;77;21499;-65
2020/12/29 09:58:21;;;;;;;5.95;5.30;;;;;;;4.62;92.68;98360.25;1849363;77;21071;-64
2020/12/29 10:00:50;;;;;;;6.40;4.92;;;;;;;4.65;92.49;98363.16;1849466;77;21060;-65
2020/12/29 10:03:19;;;;;;;6.72;5.42;;;;;;;4.66;92.60;98360.54;1806451;79;21068;-65
2020/12/29 10:05:49;;;;;;;7.00;5.03;;;;;;;4.71;92.66;98360.38;1792553;80;21665;-65
2020/12/29 10:08:17;;;;;;;7.30;6.17;;;;;;;4.76;92.63;98344.33;1773901;80;21147;-65
2020/12/29 10:10:44;;;;;;;7.30;5.58;;;;;;;4.77;92.52;98348.14;1793003;80;21167;-65
2020/12/29 10:13:12;;;;;;;6.05;5.28;;;;;;;4.79;92.56;98350.66;1782958;80;21141;-64
2020/12/29 10:15:40;;;;;;;7.72;5.90;;;;;;;4.84;92.63;98357.75;1778428;80;21031;-64
2020/12/29 10:18:07;;;;;;;8.13;6.53;;;;;;;4.88;92.54;98352.89;1782026;80;21184;-66
2020/12/29 10:20:35;;;;;;;8.30;6.67;;;;;;;4.92;92.36;98338.16;1778196;80;21576;-65
2020/12/29 10:23:03;;;;;;;6.25;5.40;;;;;;;4.96;92.29;98344.44;1782789;80;21327;-64
2020/12/29 10:25:32;;;;;;;6.65;5.95;;;;;;;4.99;92.15;98344.34;1778385;80;21056;-64
2020/12/29 10:27:59;;;;;;;9.28;7.78;;;;;;;5.01;92.10;98341.22;1782872;80;21063;-65
2020/12/29 10:30:27;;;;;;;8.60;7.03;;;;;;;5.03;92.25;98348.45;1778348;80;22251;-65
2020/12/29 10:32:55;;;;;;;8.08;6.90;;;;;;;5.09;92.28;98337.92;1774830;80;21172;-65
2020/12/29 10:35:22;;;;;;;8.80;5.95;;;;;;;5.15;92.12;98336.42;1792989;80;21165;-65
2020/12/29 10:37:50;;;;;;;9.80;7.78;;;;;;;5.19;91.94;98338.44;1782803;80;21138;-64
2020/12/29 10:40:18;;;;;;;9.50;6.95;;;;;;;5.18;91.94;98333.73;1778370;80;21080;-65
2020/12/29 10:42:46;;;;;;;9.50;7.45;;;;;;;5.16;91.92;98346.28;1778323;80;21388;-65
2020/12/29 10:45:14;;;;;;;8.30;7.05;;;;;;;5.16;92.15;98345.83;1782816;80;21192;-67
2020/12/29 10:47:42;;;;;;;9.48;7.50;;;;;;;5.20;92.15;98348.66;1778339;80;21241;-66
2020/12/29 10:50:10;;;;;;;13.25;6.92;;;;;;;5.23;92.26;98342.55;1782690;80;21201;-64
2020/12/29 10:52:38;;;;;;;9.85;7.67;;;;;;;5.29;92.20;98339.75;1778439;80;21052;-64
2020/12/29 10:55:06;;;;;;;11.93;9.05;;;;;;;5.28;92.07;98336.78;1782764;80;21342;-65
2020/12/29 10:57:34;;;;;;;10.68;7.90;;;;;;;5.28;92.22;98340.64;1778350;80;21135;-65
2020/12/29 11:00:01;;;;;;;9.53;7.35;;;;;;;5.32;92.21;98341.38;1777800;80;21047;-66
2020/12/29 11:02:29;;;;;;;12.13;8.75;;;;;;;5.36;92.21;98332.63;1793310;80;21068;-65
2020/12/29 11:04:56;;;;;;;9.65;7.50;;;;;;;5.42;92.36;98331.08;1778077;80;21060;-65
2020/12/29 11:07:25;;;;;;;12.43;8.45;;;;;;;5.52;92.27;98338.42;1773210;80;21191;-67
2020/12/29 11:09:54;;;;;;;12.43;8.85;;;;;;;5.59;92.12;98343.34;1773354;80;21022;-66
2020/12/29 11:12:22;;;;;;;10.28;8.68;;;;;;;5.70;92.05;98339.87;1772781;80;21078;-65
2020/12/29 11:14:49;;;;;;;14.80;10.80;;;;;;;5.77;91.69;98342.16;1773778;80;21588;-67
2020/12/29 11:17:17;;;;;;;12.37;10.82;;;;;;;5.82;91.52;98347.12;1773547;80;21145;-65
2020/12/29 11:19:49;;;;;;;13.90;9.93;;;;;;;5.83;91.43;98344.92;1815426;79;21083;-65
2020/12/29 11:22:17;;;;;;;15.00;12.40;;;;;;;5.85;91.33;98347.00;1815457;78;21594;-66
2020/12/29 11:24:44;;;;;;;15.08;12.43;;;;;;;5.86;91.22;98348.68;1774263;80;21219;-64
2020/12/29 11:27:13;;;;;;;16.35;14.30;;;;;;;5.86;91.32;98340.48;1814036;79;21172;-65
2020/12/29 11:29:41;;;;;;;13.13;11.10;;;;;;;5.92;91.48;98343.77;1813775;79;21116;-65
2020/12/29 11:32:09;;;;;;;15.70;12.82;;;;;;;5.97;91.41;98339.27;1816874;79;21204;-65
2020/12/29 11:34:36;;;;;;;18.23;15.35;;;;;;;6.02;91.49;98348.47;1816494;79;21541;-64
2020/12/29 11:37:05;;;;;;;13.13;10.88;;;;;;;6.09;91.48;98343.46;1816828;79;21579;-66
2020/12/29 11:39:33;;;;;;;16.50;13.43;;;;;;;6.15;91.48;98339.80;1816257;79;21158;-64
2020/12/29 11:42:01;;;;;;;18.07;14.40;;;;;;;6.21;91.57;98339.06;1817206;77;21499;-65
2020/12/29 11:44:31;;;;;;;20.17;17.42;;;;;;;6.31;91.46;98336.11;1818797;78;22326;-65
2020/12/29 11:46:59;;;;;;;19.40;15.55;;;;;;;6.41;91.61;98336.09;1777429;80;21526;-64
2020/12/29 11:49:26;;;;;;;17.80;12.65;;;;;;;6.53;91.86;98331.71;1756063;81;21558;-65
2020/12/29 11:51:57;;;;;;;15.18;13.43;;;;;;;6.68;91.88;98328.91;1745067;82;21139;-66
2020/12/29 11:54:24;;;;;;;15.28;11.53;;;;;;;6.80;91.77;98334.36;1755935;81;21710;-65
2020/12/29 11:56:52;;;;;;;11.05;8.63;;;;;;;6.93;91.82;98340.30;1761115;81;21451;-66
2020/12/29 11:59:19;;;;;;;12.58;9.20;;;;;;;7.06;91.69;98337.08;1760877;81;21089;-65
2020/12/29 12:01:47;;;;;;;13.28;11.88;;;;;;;7.17;91.50;98347.80;1761621;81;21113;-65
2020/12/29 12:04:15;;;;;;;17.25;10.40;;;;;;;7.29;91.33;98348.13;1777472;80;21151;-65
2020/12/29 12:06:48;;;;;;;21.90;10.58;;;;;;;7.39;91.13;98349.39;1756020;81;21121;-65
2020/12/29 12:09:16;;;;;;;11.90;8.20;;;;;;;7.45;90.85;98347.80;1761276;81;21565;-65
2020/12/29 12:11:46;;;;;;;10.25;7.90;;;;;;;7.51;90.55;98357.41;1761122;81;21196;-66
2020/12/29 12:14:14;;;;;;;9.38;7.97;;;;;;;7.57;90.34;98363.61;1761317;81;21159;-66
2020/12/29 12:16:42;;;;;;;12.15;9.70;;;;;;;7.66;90.18;98351.96;1752971;81;21098;-67
2020/12/29 12:19:10;;;;;;;12.07;10.08;;;;;;;7.75;89.85;98351.55;1761281;81;21084;-65
2020/12/29 12:21:38;;;;;;;13.95;8.60;;;;;;;7.80;89.50;98346.13;1768609;80;23600;-65
2020/12/29 12:24:06;;;;;;;9.20;8.30;;;;;;;7.84;89.11;98347.20;1760981;81;21095;-65
2020/12/29 12:26:36;;;;;;;10.45;8.35;;;;;;;7.86;89.01;98341.50;1761108;81;21119;-64
2020/12/29 12:29:03;;;;;;;16.27;10.03;;;;;;;7.87;88.65;98338.45;1761169;81;21222;-65
2020/12/29 12:31:32;;;;;;;10.90;9.40;;;;;;;7.88;88.76;98336.25;1760962;81;21095;-66
2020/12/29 12:33:59;;;;;;;9.28;7.78;;;;;;;7.89;88.73;98334.05;1758248;81;21195;-64
2020/12/29 12:36:27;;;;;;;14.83;13.40;;;;;;;7.93;88.70;98348.06;1758120;81;21622;-63
2020/12/29 12:38:55;;;;;;;15.18;8.88;;;;;;;8.00;88.46;98345.99;1796053;80;21103;-65
2020/12/29 12:41:23;;;;;;;14.38;9.95;;;;;;;8.03;88.27;98348.89;1796024;78;21170;-64
2020/12/29 12:43:50;;;;;;;12.82;8.53;;;;;;;8.04;88.27;98342.80;1796068;80;21494;-66
2020/12/29 12:46:18;;;;;;;12.75;7.12;;;;;;;8.07;88.10;98355.15;1776492;80;21200;-64
2020/12/29 12:48:46;;;;;;;14.87;8.95;;;;;;;8.06;87.76;98345.70;1795956;80;21197;-66
2020/12/29 12:51:14;;;;;;;10.68;8.13;;;;;;;8.04;87.84;98357.88;1796005;80;21071;-67
2020/12/29 12:53:46;;;;;;;11.73;7.35;;;;;;;8.05;87.92;98358.27;1796108;79;21403;-67
2020/12/29 12:56:15;;;;;;;14.07;10.25;;;;;;;8.07;87.90;98352.56;1796100;79;21158;-65
2020/12/29 12:58:43;;;;;;;13.48;8.45;;;;;;;8.12;87.83;98352.34;1795061;80;21192;-66
2020/12/29 13:01:17;;;;;;;10.78;6.25;;;;;;;8.14;87.74;98356.99;1775808;80;22312;-66
2020/12/29 13:03:45;;;;;;;9.03;6.15;;;;;;;8.17;87.58;98368.05;1795342;79;21122;-65
2020/12/29 13:06:24;;;;;;;11.60;6.97;;;;;;;8.18;87.55;98362.41;1795515;80;21134;-65
2020/12/29 13:08:53;;;;;;;11.35;6.03;;;;;;;8.21;87.64;98363.07;1795611;80;21059;-67
2020/12/29 13:11:20;;;;;;;10.80;5.67;;;;;;;8.22;87.54;98363.45;1795585;80;21371;-65
2020/12/29 13:13:49;;;;;;;10.58;4.80;;;;;;;8.21;87.44;98370.00;1795514;79;21178;-67
2020/12/29 13:16:21;;;;;;;8.45;5.03;;;;;;;8.19;87.50;98378.33;1796097;79;21119;-65
2020/12/29 13:18:52;;;;;;;8.45;5.05;;;;;;;8.21;87.54;98389.42;1796225;79;21071;-65
2020/12/29 13:21:20;;;;;;;9.65;5.55;;;;;;;8.18;87.48;98394.78;1796280;79;21075;-66
2020/12/29 13:23:50;;;;;;;11.22;6.72;;;;;;;8.16;87.66;98401.79;1794955;78;22102;-65
2020/12/29 13:26:18;;;;;;;9.60;4.62;;;;;;;8.16;87.70;98406.51;1796113;79;21087;-65
2020/12/29 13:28:45;;;;;;;11.90;6.37;;;;;;;8.19;87.76;98414.59;1796227;79;21540;-65
2020/12/29 13:31:13;;;;;;;10.43;5.60;;;;;;;8.21;87.76;98416.63;1803864;78;21975;-65
2020/12/29 13:33:41;;;;;;;11.53;4.72;;;;;;;8.23;87.75;98424.70;1819280;78;21508;-66
2020/12/29 13:36:09;;;;;;;11.43;4.20;;;;;;;8.25;87.65;98431.95;1818465;78;21194;-64
2020/12/29 13:38:38;;;;;;;8.30;4.80;;;;;;;8.26;87.61;98442.70;1776232;80;21121;-66
2020/12/29 13:41:06;;;;;;;11.65;4.03;;;;;;;8.30;87.42;98442.09;1754516;81;21097;-66
2020/12/29 13:43:34;;;;;;;13.48;11.75;;;;;;;8.32;87.48;98442.89;1754561;81;21545;-66
2020/12/29 13:46:04;;;;;;;17.02;11.80;;;;;;;8.36;87.42;98446.18;1754517;81;21077;-65
2020/12/29 13:48:32;;;;;;;11.10;6.25;;;;;;;8.38;87.19;98448.25;1728309;81;21383;-65
2020/12/29 13:51:02;;;;;;;9.78;5.75;;;;;;;8.38;87.02;98455.56;1750534;81;21184;-65
2020/12/29 13:53:30;;;;;;;13.28;6.62;;;;;;;8.40;86.93;98458.05;1728647;81;21240;-66
2020/12/29 13:55:58;;;;;;;9.98;6.20;;;;;;;8.38;86.71;98462.50;1753160;81;21237;-66
2020/12/29 13:58:25;;;;;;;13.03;7.72;;;;;;;8.33;86.68;98473.53;1753342;81;21185;-65
2020/12/29 14:00:53;;;;;;;11.00;6.70;;;;;;;8.26;86.67;98475.53;1752925;81;21392;-65
2020/12/29 14:03:21;;;;;;;13.90;8.48;;;;;;;8.17;86.86;98489.78;1753226;81;21226;-65
2020/12/29 14:05:50;;;;;;;9.55;6.60;;;;;;;8.10;86.97;98493.55;1753019;81;21172;-68
2020/12/29 14:08:18;;;;;;;13.55;7.47;;;;;;;8.05;87.07;98493.38;1749685;81;21212;-66
2020/12/29 14:10:48;;;;;;;16.25;9.65;;;;;;;7.99;87.28;98486.76;1719679;81;21481;-66
2020/12/29 14:13:16;;;;;;;11.18;5.72;;;;;;;7.95;87.44;98492.53;1721424;82;22209;-65
2020/12/29 14:15:45;;;;;;;9.55;4.72;;;;;;;7.91;87.61;98490.98;1723355;83;21186;-68
2020/12/29 14:18:12;;;;;;;12.70;5.40;;;;;;;7.86;87.46;98494.23;1723435;82;21592;-65
2020/12/29 14:20:40;;;;;;;10.90;5.67;;;;;;;7.80;87.43;98503.56;1723371;83;21123;-66
2020/12/29 14:23:09;;;;;;;14.87;6.90;;;;;;;7.74;87.60;98512.09;1723720;83;21175;-66
2020/12/29 14:25:37;;;;;;;8.80;5.83;;;;;;;7.69;87.93;98510.15;1724045;83;21380;-65
2020/12/29 14:28:05;;;;;;;11.35;6.17;;;;;;;7.67;88.08;98517.14;1724124;82;21132;-64
2020/12/29 14:30:35;;;;;;;12.00;5.45;;;;;;;7.66;88.25;98504.66;1724461;83;21159;-65
2020/12/29 14:33:04;;;;;;;9.80;4.92;;;;;;;7.64;88.33;98497.41;1746789;82;21202;-65
2020/12/29 14:35:33;;;;;;;7.10;4.03;;;;;;;7.60;88.55;98490.23;1748217;82;21088;-64
2020/12/29 14:38:01;;;;;;;8.60;3.47;;;;;;;7.59;88.74;98494.22;1725060;82;21279;-65
2020/12/29 14:40:30;;;;;;;7.80;3.70;;;;;;;7.58;88.94;98500.30;1748044;82;21091;-65
2020/12/29 14:42:57;;;;;;;9.70;3.55;;;;;;;7.55;88.99;98507.73;1748136;80;21128;-64
2020/12/29 14:45:27;;;;;;;6.45;4.42;;;;;;;7.54;89.25;98516.86;1748009;82;21591;-65
2020/12/29 14:47:56;;;;;;;11.38;4.90;;;;;;;7.54;89.43;98525.91;1747827;82;21116;-65
2020/12/29 14:50:24;;;;;;;9.43;4.33;;;;;;;7.53;89.33;98530.25;1748021;82;21333;-64
2020/12/29 14:52:51;;;;;;;7.47;4.10;;;;;;;7.51;89.31;98542.41;1747978;82;22003;-65
2020/12/29 14:55:22;;;;;;;9.13;4.87;;;;;;;7.48;89.31;98546.42;1748021;82;21492;-66
2020/12/29 14:57:49;;;;;;;9.70;5.53;;;;;;;7.46;89.34;98544.80;1748046;82;21080;-64
2020/12/29 15:00:17;;;;;;;12.80;5.47;;;;;;;7.44;89.37;98549.20;1745600;82;21191;-65
2020/12/29 15:02:45;;;;;;;9.28;5.12;;;;;;;7.41;89.59;98549.33;1745877;82;21209;-66
